Latest Weather Observations for Gingin Airport

IDW60801

Issued at 9:32 pm WST Friday 19 December 2014 (issued every 30 minutes, with the page automatically refreshed every 10 minutes)

About weather observations | Map of weather stations | Latest weather observations for WA | Other Formats
Station Details ID: 009178 Name: GINGIN AERO Lat: -31.46 Lon: 115.86 Height: 73.0 m
Data from the previous 72 hours. | See also: Recent months at Gingin Airport
Date/Time
WST
Temp
°C
App
Temp
°C
Dew
Point
Rel
Hum
%
Delta-T
°C
Wind Press
QNH
hPa
Press
MSL
hPa
Rain
since 9 am
mm
Dir
 
Spd
km/h
Gust
km/h
Spd
kts
Gust
kts
19/09:30pm 24.6 24.4 14.7 54 5.9 W 9 13 5 7 1009.0 1008.7 0.0
19/09:00pm 25.4 25.1 14.5 51 6.5 S 9 13 5 7 1008.5 1008.2 0.0
19/08:30pm 25.6 23.3 14.1 49 6.8 SSW 19 26 10 14 1007.8 1007.5 0.0
19/08:00pm 25.6 22.7 12.8 45 7.5 SSW 20 28 11 15 1007.4 1007.1 0.0
19/07:30pm 25.9 22.6 10.9 39 8.5 SSW 19 24 10 13 1006.9 1006.6 0.0
19/07:00pm 27.0 22.4 9.8 34 9.6 SSW 24 33 13 18 1006.6 1006.3 0.0
19/06:30pm 28.8 23.1 8.5 28 11.2 SSW 28 37 15 20 1006.1 1005.8 0.0
19/06:00pm 31.5 25.5 7.2 22 13.3 SSW 28 39 15 21 1005.7 1005.4 0.0
19/05:30pm 32.7 25.3 6.8 20 14.1 SSW 35 44 19 24 1005.5 1005.2 0.0
19/05:00pm 34.0 27.6 8.6 21 14.4 SSW 32 39 17 21 1005.4 1005.1 0.0
19/04:30pm 34.4 27.7 9.6 22 14.3 S 35 44 19 24 1005.4 1005.1 0.0
19/04:00pm 34.8 28.2 9.9 22 14.4 SSW 35 46 19 25 1005.7 1005.4 0.0
19/03:30pm 35.7 29.5 11.4 23 14.4 SSW 35 44 19 24 1006.0 1005.7 0.0
19/03:00pm 37.3 31.4 11.3 21 15.6 SSW 33 46 18 25 1006.3 1006.0 0.0
19/02:30pm 38.9 35.8 10.3 18 16.9 SSW 17 35 9 19 1006.6 1006.3 0.0
19/02:00pm 39.4 36.1 4.7 12 19.0 SE 11 19 6 10 1007.1 1006.8 0.0
19/01:30pm 39.2 34.4 4.6 12 18.9 E 19 32 10 17 1007.9 1007.6 0.0
19/01:00pm 38.5 34.9 5.2 13 18.3 E 13 22 7 12 1008.5 1008.2 0.0
19/12:30pm 37.9 34.1 5.8 14 17.7 ENE 15 22 8 12 1009.1 1008.8 0.0
19/12:00pm 36.9 33.0 7.0 16 16.7 ENE 17 30 9 16 1009.8 1009.5 0.0
19/11:30am 35.9 31.6 7.0 17 16.1 E 19 30 10 16 1010.4 1010.1 0.0
19/11:00am 34.1 29.7 7.2 19 14.9 E 20 33 11 18 1010.9 1010.6 0.0
19/10:30am 34.0 29.0 7.9 20 14.6 ENE 24 37 13 20 1011.2 1010.9 0.0
19/10:00am 32.8 27.9 8.3 22 13.7 ENE 24 32 13 17 1011.5 1011.2 0.0
19/09:30am 31.0 25.8 8.7 25 12.4 E 26 35 14 19 1011.9 1011.6 0.0
19/09:00am 29.5 24.2 8.5 27 11.6 ENE 26 33 14 18 1012.4 1012.1 0.0
19/08:30am 28.3 23.7 8.1 28 11.0 E 22 35 12 19 1012.7 1012.4 0.0
19/08:00am 27.0 21.4 8.9 32 9.9 E 28 35 15 19 1012.8 1012.5 0.0
19/07:30am 25.4 20.2 8.8 35 9.0 E 26 35 14 19 1013.0 1012.7 0.0
19/07:00am 24.0 19.5 9.9 41 7.7 ESE 24 30 13 16 1013.1 1012.8 0.0
19/06:30am 22.4 18.2 9.9 45 6.8 ESE 22 28 12 15 1012.9 1012.6 0.0
19/06:00am 20.8 17.7 10.3 51 5.7 ESE 17 22 9 12 1013.0 1012.7 0.0
19/05:30am 19.9 16.4 10.3 54 5.2 E 19 22 10 12 1013.0 1012.7 0.0
19/05:00am 19.1 16.1 10.6 58 4.6 ESE 17 20 9 11 1012.9 1012.6 0.0
19/04:30am 17.8 15.7 11.1 65 3.6 ESE 13 15 7 8 1012.6 1012.3 0.0
19/04:00am 16.9 14.6 10.5 66 3.4 SE 13 15 7 8 1012.5 1012.2 0.0
19/03:30am 16.3 13.5 11.5 73 2.6 SE 17 19 9 10 1012.3 1012.0 0.0
19/03:00am 14.1 12.0 13.5 96 0.3 SE 17 19 9 10 1012.4 1012.1 0.0
19/02:30am 13.5 12.9 13.5 100 0.0 SE 9 11 5 6 1012.6 1012.3 0.0
19/02:00am 14.2 13.7 13.7 97 0.3 SE 9 11 5 6 1012.8 1012.5 0.0
19/01:30am 14.9 14.1 14.1 95 0.5 SSE 11 13 6 7 1012.9 1012.6 0.0
19/01:00am 14.7 13.3 13.4 92 0.7 SSE 13 15 7 8 1013.1 1012.8 0.0
19/12:30am 14.8 14.0 12.8 88 1.1 SE 9 11 5 6 1013.2 1012.9 0.0
19/12:00am 15.0 14.1 12.5 85 1.4 SSE 9 11 5 6 1013.4 1013.1 0.0
 
Date/Time
WST
Temp
°C
App
Temp
°C
Dew
Point
Rel
Hum
%
Delta-T
°C
Wind Press
QNH
hPa
Press
MSL
hPa
Rain
since 9 am
mm
Dir
 
Spd
km/h
Gust
km/h
Spd
kts
Gust
kts
18/11:30pm 15.7 14.9 12.8 83 1.6 SSE 9 11 5 6 1013.9 1013.6 0.0
18/11:00pm 16.2 15.5 13.1 82 1.7 SSE 9 9 5 5 1014.0 1013.7 0.0
18/10:30pm 16.9 16.2 13.2 79 2.1 SSE 9 11 5 6 1014.3 1014.0 0.0
18/10:00pm 17.6 17.0 13.5 77 2.3 SSE 9 13 5 7 1014.3 1014.0 0.0
18/09:30pm 18.4 17.2 13.9 75 2.6 S 13 19 7 10 1014.3 1014.0 0.0
18/09:00pm 18.8 17.2 13.9 73 2.8 S 15 20 8 11 1014.3 1014.0 0.0
18/08:30pm 19.4 16.9 13.6 69 3.3 S 19 22 10 12 1014.3 1014.0 0.0
18/08:00pm 20.1 17.5 13.3 65 3.9 S 19 24 10 13 1014.3 1014.0 0.0
18/07:30pm 21.0 18.5 12.4 58 4.9 SSW 17 24 9 13 1014.2 1013.9 0.0
18/07:00pm 22.3 19.1 12.0 52 5.8 SSW 20 28 11 15 1013.9 1013.6 0.0
18/06:30pm 23.6 18.8 11.6 47 6.8 S 28 35 15 19 1013.5 1013.2 0.0
18/06:00pm 25.1 21.8 12.7 46 7.2 S 22 32 12 17 1013.2 1012.9 0.0
18/05:30pm 25.7 21.2 12.5 44 7.6 SSW 28 35 15 19 1013.0 1012.7 0.0
18/05:00pm 26.3 21.2 12.0 41 8.2 SSW 30 43 16 23 1012.7 1012.4 0.0
18/04:30pm 27.3 21.5 10.9 36 9.3 SSW 32 39 17 21 1012.7 1012.4 0.0
18/04:00pm 28.5 22.8 11.1 34 10.0 SSW 32 39 17 21 1012.8 1012.5 0.0
18/03:30pm 31.7 28.8 9.8 26 12.5 SSE 15 28 8 15 1012.9 1012.6 0.0
18/03:00pm 31.3 26.2 0.6 14 15.0 ESE 17 30 9 16 1013.1 1012.8 0.0
18/02:30pm 30.8 26.8 2.9 17 14.1 S 13 20 7 11 1013.4 1013.1 0.0
18/02:00pm 30.5 27.0 3.5 18 13.8 ESE 11 30 6 16 1013.8 1013.5 0.0
18/01:30pm 30.1 26.1 4.7 20 13.2 E 15 24 8 13 1014.2 1013.9 0.0
18/01:00pm 29.8 25.8 5.1 21 12.9 ESE 15 26 8 14 1014.6 1014.3 0.0
18/12:30pm 28.9 25.8 5.7 23 12.2 NE 11 22 6 12 1015.1 1014.8 0.0
18/12:00pm 27.5 22.8 5.1 24 11.5 ESE 19 28 10 15 1015.6 1015.3 0.0
18/11:30am 27.2 23.2 6.6 27 10.9 E 17 32 9 17 1015.9 1015.7 0.0
18/11:00am 26.3 22.6 7.8 31 9.9 ENE 17 30 9 16 1016.3 1016.1 0.0
18/10:30am 25.2 20.9 7.8 33 9.3 ENE 20 32 11 17 1016.5 1016.3 0.0
18/10:00am 24.2 19.8 9.0 38 8.2 ENE 22 32 12 17 1016.7 1016.5 0.0
18/09:30am 22.8 18.8 8.9 41 7.5 ENE 20 32 11 17 1016.7 1016.5 0.0
18/09:00am 22.0 17.4 9.5 45 6.7 ENE 24 30 13 16 1017.0 1016.8 0.0
18/08:30am 21.5 17.1 10.3 49 6.1 E 24 32 13 17 1017.3 1017.0 0.0
18/08:00am 19.9 14.6 10.0 53 5.3 E 28 35 15 19 1017.0 1016.8 0.0
18/07:30am 18.9 13.3 10.2 57 4.7 E 30 39 16 21 1017.3 1017.0 0.0
18/07:00am 17.8 12.7 10.7 63 3.8 E 28 37 15 20 1016.9 1016.7 0.0
18/06:30am 17.1 12.8 10.7 66 3.4 E 24 35 13 19 1016.5 1016.3 0.0
18/06:00am 16.5 12.6 10.8 69 3.0 ESE 22 33 12 18 1016.1 1015.9 0.0
18/05:30am 15.9 11.9 10.4 70 2.9 ESE 22 32 12 17 1015.6 1015.3 0.0
18/05:00am 16.1 12.7 10.6 70 2.9 ESE 19 26 10 14 1015.2 1014.9 0.0
18/04:30am 16.0 12.6 10.7 71 2.8 ESE 19 24 10 13 1014.8 1014.5 0.0
18/04:00am 15.4 12.6 11.4 77 2.2 ESE 17 20 9 11 1014.4 1014.1 0.0
18/03:30am 13.9 11.6 11.9 88 1.1 SE 15 20 8 11 1014.0 1013.7 0.0
18/03:00am 12.0 10.2 12.0 100 0.0 SSE 13 15 7 8 1013.8 1013.5 0.0
18/02:30am 12.0 10.5 12.0 100 0.0 SSE 11 13 6 7 1013.7 1013.4 0.0
18/02:00am 12.4 11.4 12.4 100 0.0 SSE 9 11 5 6 1013.6 1013.3 0.0
18/01:30am 12.8 12.0 12.8 100 0.0 SSE 9 11 5 6 1013.6 1013.3 0.0
18/01:00am 13.0 12.2 13.0 100 0.0 SSE 9 9 5 5 1013.7 1013.4 0.0
18/12:30am 13.6 13.4 13.6 100 0.0 SSE 7 9 4 5 1013.8 1013.5 0.0
18/12:00am 14.0 13.8 13.5 97 0.3 SSE 7 9 4 5 1013.9 1013.6 0.0
 
Date/Time
WST
Temp
°C
App
Temp
°C
Dew
Point
Rel
Hum
%
Delta-T
°C
Wind Press
QNH
hPa
Press
MSL
hPa
Rain
since 9 am
mm
Dir
 
Spd
km/h
Gust
km/h
Spd
kts
Gust
kts
17/11:30pm 15.3 15.0 14.5 95 0.5 SSW 9 11 5 6 1013.9 1013.6 0.0
17/11:00pm 15.7 15.5 14.6 93 0.6 SSW 9 11 5 6 1014.0 1013.7 0.0
17/10:30pm 15.9 16.0 14.4 91 0.9 S 7 11 4 6 1014.1 1013.8 0.0
17/10:00pm 16.5 16.2 14.5 88 1.1 S 9 13 5 7 1014.1 1013.8 0.0
17/09:30pm 17.0 16.0 14.5 85 1.4 S 13 17 7 9 1013.8 1013.5 0.0
17/09:00pm 17.2 16.1 14.3 83 1.7 S 13 19 7 10 1013.8 1013.5 0.0
17/08:30pm 17.6 16.1 14.1 80 2.0 SSW 15 22 8 12 1013.6 1013.3 0.0
17/08:00pm 18.0 15.4 13.9 77 2.3 S 20 28 11 15 1013.4 1013.1 0.0
17/07:30pm 18.4 14.9 13.3 72 2.9 SSW 24 32 13 17 1013.1 1012.8 0.0
17/07:00pm 19.2 15.0 12.5 65 3.8 SSW 26 35 14 19 1013.0 1012.7 0.0
17/06:30pm 20.0 15.6 11.7 59 4.6 S 26 37 14 20 1012.7 1012.4 0.0
17/06:00pm 20.9 16.0 11.3 54 5.3 SSW 28 39 15 21 1012.4 1012.1 0.0
17/05:30pm 21.4 16.8 10.9 51 5.8 SSW 26 35 14 19 1012.2 1011.9 0.0
17/05:00pm 21.9 16.8 10.7 49 6.2 SSW 28 35 15 19 1012.0 1011.7 0.0
17/04:30pm 22.2 16.7 10.7 48 6.3 SW 30 41 16 22 1011.8 1011.5 0.0
17/04:00pm 22.3 17.2 10.5 47 6.5 SSW 28 39 15 21 1011.8 1011.5 0.0
17/03:30pm 23.0 17.0 10.1 44 7.1 SW 32 43 17 23 1011.8 1011.5 0.0
17/03:00pm 22.5 17.1 9.6 44 7.0 SSW 28 35 15 19 1011.9 1011.6 0.0
17/02:30pm 22.7 16.5 9.5 43 7.1 SSW 32 41 17 22 1011.8 1011.5 0.0
17/02:00pm 23.4 17.9 9.0 40 7.8 SW 28 39 15 21 1011.9 1011.6 0.0
17/01:30pm 23.9 18.3 8.7 38 8.2 SW 28 39 15 21 1011.9 1011.6 0.0
17/01:00pm 23.3 17.9 7.8 37 8.2 SSW 26 39 14 21 1012.1 1011.8 0.0
17/12:30pm 24.3 18.7 8.7 37 8.4 SSW 28 39 15 21 1012.2 1011.9 0.0
17/12:00pm 23.0 18.4 6.3 34 8.5 SSW 20 33 11 18 1012.5 1012.2 0.0
17/11:30am 23.0 19.1 7.1 36 8.3 SSE 17 28 9 15 1012.7 1012.4 0.0
17/11:00am 21.9 18.7 7.0 38 7.7 SSE 13 26 7 14 1013.0 1012.7 0.0
17/10:30am 21.0 18.0 7.6 42 6.9 S 13 24 7 13 1013.0 1012.7 0.0
17/10:00am 21.0 17.3 8.0 43 6.8 SSE 17 32 9 17 1013.1 1012.8 0.0
17/09:30am 19.5 15.3 8.2 48 5.9 SSE 20 30 11 16 1013.2 1012.9 0.0
17/09:00am 18.5 14.9 8.5 52 5.2 SSE 17 22 9 12 1013.4 1013.1 0.0
17/08:30am 18.1 13.6 8.7 54 4.9 SSE 22 30 12 16 1013.6 1013.3 0.0
17/08:00am 17.3 13.4 9.5 60 4.1 SE 20 24 11 13 1013.8 1013.5 0.0
17/07:30am 15.8 12.0 9.0 64 3.5 SSE 19 24 10 13 1013.8 1013.5 0.0
17/07:00am 14.4 10.5 9.6 73 2.5 SSE 20 26 11 14 1013.8 1013.5 0.0
17/06:30am 13.2 10.3 9.5 78 1.9 SSE 15 19 8 10 1013.3 1013.0 0.0
17/06:00am 12.4 10.6 9.6 83 1.4 SSE 9 11 5 6 1013.0 1012.7 0.0
17/05:30am 11.2 9.0 9.3 88 1.0 S 11 15 6 8 1012.5 1012.2 0.0
17/05:00am 11.0 8.4 9.3 89 0.9 S 13 15 7 8 1012.2 1011.9 0.0
17/04:30am 10.7 8.4 9.1 90 0.8 S 11 13 6 7 1011.8 1011.5 0.0
17/04:00am 11.1 9.3 9.4 89 0.9 SSE 9 11 5 6 1011.7 1011.4 0.0
17/03:30am 11.8 9.7 9.9 88 1.0 S 11 13 6 7 1011.5 1011.2 0.0
17/03:00am 12.1 10.1 10.3 89 0.9 S 11 15 6 8 1011.5 1011.2 0.0
17/02:30am 12.1 10.3 11.0 93 0.6 SSE 11 15 6 8 1011.3 1011.0 0.0
17/02:00am 12.6 11.4 11.5 93 0.6 SSE 9 11 5 6 1011.2 1010.9 0.0
17/01:30am 12.3 10.3 11.5 95 0.4 SSE 13 17 7 9 1011.2 1010.9 0.0
17/01:00am 12.3 10.9 11.0 92 0.7 SSE 9 11 5 6 1011.4 1011.1 0.0
17/12:30am 12.9 11.5 11.0 88 1.0 S 9 11 5 6 1011.6 1011.3 0.0
17/12:00am 13.3 12.4 10.8 85 1.3 S 6 7 3 4 1012.0 1011.7 0.0
 
Date/Time
WST
Temp
°C
App
Temp
°C
Dew
Point
Rel
Hum
%
Delta-T
°C
Wind Press
QNH
hPa
Press
MSL
hPa
Rain
since 9 am
mm
Dir
 
Spd
km/h
Gust
km/h
Spd
kts
Gust
kts
16/11:30pm 13.8 12.0 11.0 83 1.5 SSW 11 13 6 7 1012.1 1011.8 0.0
16/11:00pm 14.3 13.0 11.1 81 1.7 SSW 9 11 5 6 1012.4 1012.1 0.0
16/10:30pm 14.5 13.1 10.9 79 1.9 SSW 9 11 5 6 1012.5 1012.2 0.0
16/10:00pm 14.9 12.7 10.9 77 2.1 SSW 13 17 7 9 1012.5 1012.2 0.0

Other Formats:

Comma delimited format used in spreadsheet applications
http://www.bom.gov.au/fwo/IDW60801/IDW60801.95612.axf

JavaScript Object Notation format (JSON) in row-major order
http://www.bom.gov.au/fwo/IDW60801/IDW60801.95612.json